Yaounde, Cameroon
Current Conditions -  °F | °C
As of 6:00 AM on Wednesday 22 Oct 2014 (Local Time) from FKYS Reporting Station
Broken Clouds Broken Clouds  
Wind Chill: 20°   Ceiling: 600
Heat Index: 20°   Visibility: 4mi
Dew Point: 19°   Wind: 0mph
Humidity: 94%   Direction: NA
Pressure: 30"   Gusts: NA
Location:  3.87°N, 11.52°E
Report Text: FKYS 220500Z 00000KT 6000 SCT002 BKN006 20/19 Q1016 TEMPO 4000BR
Loading
Personal Weather Stations






























Interactive Weather Map
Tropical Storm Tracking
New forecast layout! Learn more

10-Day Weather Forecast

Advertisements
Track Severe Weather on mobile